createdAt,value
2018-10-05T00:00:29.874Z,6.63
2018-10-05T00:03:01.291Z,11.83
2018-10-05T00:05:32.743Z,8.03
2018-10-05T00:08:04.046Z,8.70
2018-10-05T00:10:36.517Z,10.27
2018-10-05T00:13:08.028Z,8.00
2018-10-05T00:15:39.246Z,6.67
2018-10-05T00:18:10.536Z,6.20
2018-10-05T00:20:41.921Z,5.37
2018-10-05T00:23:13.128Z,8.63
2018-10-05T00:25:44.522Z,6.37
2018-10-05T00:28:15.719Z,5.63
2018-10-05T00:30:46.862Z,7.30
2018-10-05T00:33:18.111Z,7.63
2018-10-05T00:35:49.656Z,4.03
2018-10-05T00:38:20.812Z,8.63
2018-10-05T00:40:58.772Z,5.87
2018-10-05T00:43:31.187Z,7.60
2018-10-05T00:46:02.417Z,7.97
2018-10-05T00:48:33.589Z,9.43
2018-10-05T00:51:04.941Z,8.17
2018-10-05T00:53:36.418Z,7.70
2018-10-05T00:56:07.492Z,9.20
2018-10-05T00:58:38.727Z,5.60
2018-10-05T01:01:10.307Z,5.63
2018-10-05T01:03:41.755Z,7.13
2018-10-05T01:06:13.449Z,8.37
2018-10-05T01:08:48.687Z,8.33
2018-10-05T01:11:20.113Z,5.73
2018-10-05T01:13:51.447Z,5.73
2018-10-05T01:16:22.880Z,8.10
2018-10-05T01:18:54.265Z,9.00
2018-10-05T01:21:25.508Z,11.93
2018-10-05T01:23:56.844Z,13.93
2018-10-05T01:26:28.685Z,6.53
2018-10-05T01:29:00.311Z,6.90
2018-10-05T01:31:31.829Z,7.40
2018-10-05T01:34:02.927Z,6.37
2018-10-05T01:36:34.279Z,7.13
2018-10-05T01:39:06.476Z,7.53
2018-10-05T01:41:37.968Z,8.03
2018-10-05T01:44:09.410Z,4.67
2018-10-05T01:46:40.804Z,5.63
2018-10-05T01:49:12.339Z,11.37
2018-10-05T01:51:43.727Z,9.43
2018-10-05T01:54:15.159Z,8.87
2018-10-05T01:56:46.472Z,5.07
2018-10-05T01:59:17.772Z,7.30
2018-10-05T02:01:49.127Z,8.90
2018-10-05T02:04:20.839Z,8.37
2018-10-05T02:06:52.122Z,6.20
2018-10-05T02:09:23.413Z,4.83
2018-10-05T02:11:54.741Z,7.77
2018-10-05T02:14:26.550Z,12.90
2018-10-05T02:16:58.234Z,7.43
2018-10-05T02:19:29.427Z,9.50
2018-10-05T02:22:00.832Z,7.63
2018-10-05T02:24:32.167Z,8.07
2018-10-05T02:27:03.775Z,8.07
2018-10-05T02:29:35.158Z,9.07
2018-10-05T02:32:06.566Z,9.03
2018-10-05T02:34:37.874Z,12.70
2018-10-05T02:37:09.367Z,8.53
2018-10-05T02:39:41.748Z,7.23
2018-10-05T02:42:13.232Z,9.73
2018-10-05T02:44:44.571Z,5.27
2018-10-05T02:47:15.665Z,5.00
2018-10-05T02:49:46.943Z,12.47
2018-10-05T02:52:19.887Z,6.00
2018-10-05T02:54:51.423Z,8.23
2018-10-05T02:57:22.476Z,11.27
2018-10-05T02:59:53.581Z,9.87
2018-10-05T03:02:34.955Z,11.93
2018-10-05T03:05:06.183Z,9.87
2018-10-05T03:07:37.595Z,8.87
2018-10-05T03:10:08.835Z,9.30
2018-10-05T03:12:40.067Z,12.90
2018-10-05T03:15:11.301Z,9.60
2018-10-05T03:17:42.492Z,7.90
2018-10-05T03:20:13.799Z,6.70
2018-10-05T03:22:45.317Z,7.70
2018-10-05T03:25:16.905Z,6.57
2018-10-05T03:27:48.351Z,13.83
2018-10-05T03:30:19.866Z,8.53
2018-10-05T03:32:51.270Z,8.53
2018-10-05T03:35:22.456Z,10.53
2018-10-05T03:37:53.666Z,12.40
2018-10-05T03:40:25.267Z,13.47
2018-10-05T03:42:56.663Z,10.53
2018-10-05T03:45:28.205Z,9.47
2018-10-05T03:47:59.623Z,8.80
2018-10-05T03:50:30.689Z,10.07
2018-10-05T03:53:02.407Z,11.47
2018-10-05T03:55:33.812Z,8.83
2018-10-05T03:58:05.101Z,8.57
2018-10-05T04:00:36.389Z,11.50
2018-10-05T04:03:07.802Z,11.53
2018-10-05T04:05:39.128Z,11.27
2018-10-05T04:08:10.528Z,11.57
2018-10-05T04:10:41.915Z,10.80
2018-10-05T04:13:13.177Z,14.70
2018-10-05T04:15:44.584Z,8.13
2018-10-05T04:18:16.076Z,10.67
2018-10-05T04:20:47.553Z,14.57
2018-10-05T04:23:18.953Z,10.80
2018-10-05T04:25:50.197Z,11.77
2018-10-05T04:28:21.512Z,14.87
2018-10-05T04:30:53.203Z,8.63
2018-10-05T04:33:24.494Z,24.83
2018-10-05T04:35:55.646Z,13.10
2018-10-05T04:38:27.043Z,8.43
2018-10-05T04:40:58.503Z,10.70
2018-10-05T04:43:29.657Z,10.53
2018-10-05T04:46:00.926Z,10.93
2018-10-05T04:48:32.193Z,13.03
2018-10-05T04:51:03.534Z,13.80
2018-10-05T04:53:35.215Z,18.10
2018-10-05T04:56:06.508Z,13.77
2018-10-05T04:58:37.899Z,9.57
2018-10-05T05:01:09.080Z,9.17
2018-10-05T05:03:40.383Z,10.57
2018-10-05T05:06:11.545Z,11.17
2018-10-05T05:08:42.813Z,8.60
2018-10-05T05:11:14.152Z,10.30
2018-10-05T05:13:45.435Z,9.50
2018-10-05T05:16:16.805Z,19.37
2018-10-05T05:18:48.034Z,11.53
2018-10-05T05:21:19.560Z,22.43
2018-10-05T05:23:50.999Z,19.83
2018-10-05T05:26:22.356Z,19.67
2018-10-05T05:28:53.825Z,14.60
2018-10-05T05:31:25.243Z,11.70
2018-10-05T05:33:56.601Z,8.40
2018-10-05T05:36:27.999Z,17.20
2018-10-05T05:38:59.197Z,19.07
2018-10-05T05:41:30.620Z,19.10
2018-10-05T05:44:02.182Z,14.37
2018-10-05T05:46:33.769Z,8.13
2018-10-05T05:49:05.168Z,13.20
2018-10-05T05:51:36.792Z,9.70
2018-10-05T05:54:08.430Z,12.37
2018-10-05T05:56:39.728Z,69.10
2018-10-05T05:59:11.210Z,55.50
2018-10-05T06:01:42.396Z,9.37
2018-10-05T06:04:13.692Z,9.43
2018-10-05T06:06:45.040Z,6.10
2018-10-05T06:09:16.302Z,11.00
2018-10-05T06:11:47.643Z,7.23
2018-10-05T06:14:18.796Z,17.73
2018-10-05T06:16:50.030Z,26.03
2018-10-05T06:19:21.407Z,14.53
2018-10-05T06:21:53.181Z,10.10
2018-10-05T06:24:24.394Z,10.30
2018-10-05T06:26:55.707Z,11.33
2018-10-05T06:29:27.059Z,8.17
2018-10-05T06:31:58.501Z,6.13
2018-10-05T06:34:29.899Z,7.33
2018-10-05T06:37:01.337Z,11.33
2018-10-05T06:39:32.564Z,7.23
2018-10-05T06:42:03.875Z,7.20
2018-10-05T06:44:35.168Z,7.40
2018-10-05T06:47:06.596Z,8.23
2018-10-05T06:49:37.870Z,8.67
2018-10-05T06:52:09.265Z,8.03
2018-10-05T06:54:40.949Z,9.83
2018-10-05T06:57:12.323Z,8.83
2018-10-05T06:59:43.496Z,18.57
2018-10-05T07:02:14.801Z,6.10
2018-10-05T07:04:46.390Z,12.93
2018-10-05T07:07:17.794Z,7.20
2018-10-05T07:09:49.337Z,7.23
2018-10-05T07:12:20.667Z,7.67
2018-10-05T07:14:52.396Z,7.93
2018-10-05T07:17:23.399Z,7.27
2018-10-05T07:19:54.469Z,9.10
2018-10-05T07:22:26.081Z,13.30
2018-10-05T07:24:57.545Z,8.77
2018-10-05T07:27:28.870Z,5.73
2018-10-05T07:30:00.399Z,6.40
2018-10-05T07:32:32.026Z,8.47
2018-10-05T07:35:03.187Z,11.07
2018-10-05T07:37:34.613Z,9.27
2018-10-05T07:40:06.343Z,7.67
2018-10-05T07:42:37.787Z,6.97
2018-10-05T07:45:09.344Z,6.23
2018-10-05T07:47:40.936Z,7.17
2018-10-05T07:50:12.552Z,10.30
2018-10-05T07:52:44.039Z,14.03
2018-10-05T07:55:15.440Z,6.47
2018-10-05T07:57:47.059Z,10.77
2018-10-05T08:00:18.868Z,10.30
2018-10-05T08:02:50.117Z,11.48
2018-10-05T08:05:21.540Z,6.85
2018-10-05T08:07:52.962Z,8.43
2018-10-05T08:10:24.579Z,9.00
2018-10-05T08:12:55.819Z,5.90
2018-10-05T08:15:27.175Z,7.90
2018-10-05T08:17:58.871Z,7.53
2018-10-05T08:20:30.576Z,6.12
2018-10-05T08:23:01.990Z,13.58
2018-10-05T08:25:33.370Z,8.00
2018-10-05T08:28:04.763Z,6.75
2018-10-05T08:30:35.937Z,11.43
2018-10-05T08:33:07.158Z,10.55
2018-10-05T08:35:38.588Z,10.45
2018-10-05T08:38:10.326Z,9.83
2018-10-05T08:40:41.720Z,9.15
2018-10-05T08:43:13.117Z,18.10
2018-10-05T08:45:44.850Z,12.97
2018-10-05T08:48:16.223Z,10.50
2018-10-05T08:50:47.575Z,10.23
2018-10-05T08:53:19.080Z,9.03
2018-10-05T08:55:50.381Z,10.03
2018-10-05T08:58:22.048Z,9.23
2018-10-05T09:00:53.315Z,9.50
2018-10-05T09:03:24.539Z,13.67
2018-10-05T09:05:56.113Z,12.58
2018-10-05T09:08:27.402Z,7.50
2018-10-05T09:10:59.103Z,11.85
2018-10-05T09:13:30.460Z,10.53
2018-10-05T09:16:01.675Z,10.60
2018-10-05T09:18:32.920Z,9.63
2018-10-05T09:21:04.395Z,11.63
2018-10-05T09:23:35.965Z,9.58
2018-10-05T09:26:07.271Z,9.00
2018-10-05T09:28:38.836Z,11.20
2018-10-05T09:31:10.417Z,10.97
2018-10-05T09:33:41.968Z,6.97
2018-10-05T09:36:13.243Z,7.17
2018-10-05T09:38:44.551Z,10.17
2018-10-05T09:41:16.017Z,12.97
2018-10-05T09:43:47.299Z,9.48
2018-10-05T09:46:18.745Z,9.58
2018-10-05T09:48:50.015Z,11.97
2018-10-05T09:51:21.667Z,9.40
2018-10-05T09:53:52.843Z,8.28
2018-10-05T09:56:24.603Z,10.18
2018-10-05T09:58:56.016Z,9.30
2018-10-05T10:01:32.325Z,11.70
2018-10-05T10:04:03.665Z,7.90
2018-10-05T10:06:35.232Z,8.67
2018-10-05T10:09:09.070Z,10.03
2018-10-05T10:11:40.516Z,11.90
2018-10-05T10:14:12.087Z,12.55
2018-10-05T10:16:44.058Z,13.47
2018-10-05T10:19:15.333Z,6.87
2018-10-05T10:21:46.702Z,5.58
2018-10-05T10:24:18.409Z,10.55
2018-10-05T10:26:49.688Z,6.40
2018-10-05T10:29:21.317Z,9.43
2018-10-05T10:31:52.760Z,9.70
2018-10-05T10:34:24.429Z,8.90
2018-10-05T10:36:56.005Z,7.30
2018-10-05T10:39:27.375Z,7.43
2018-10-05T10:41:58.695Z,9.93
2018-10-05T10:44:30.435Z,9.30
2018-10-05T10:47:01.905Z,7.80
2018-10-05T10:49:33.684Z,15.53
2018-10-05T10:52:05.102Z,9.03
2018-10-05T10:54:36.272Z,11.20
2018-10-05T10:57:07.718Z,14.67
2018-10-05T10:59:39.388Z,14.20
2018-10-05T11:02:10.751Z,10.67
2018-10-05T11:04:42.279Z,11.63
2018-10-05T11:07:13.692Z,7.03
2018-10-05T11:09:44.976Z,7.73
2018-10-05T11:12:16.196Z,10.73
2018-10-05T11:14:47.377Z,7.63
2018-10-05T11:17:19.110Z,7.50
2018-10-05T11:19:50.556Z,11.97
2018-10-05T11:22:22.191Z,9.20
2018-10-05T11:24:53.864Z,6.00
2018-10-05T11:27:25.428Z,4.97
2018-10-05T11:29:56.698Z,23.73
2018-10-05T11:32:28.267Z,12.93
2018-10-05T11:34:59.677Z,14.03
2018-10-05T11:37:31.139Z,10.10
2018-10-05T11:40:02.554Z,6.90
2018-10-05T11:42:33.938Z,5.57
2018-10-05T11:45:05.359Z,5.57
2018-10-05T11:47:37.016Z,6.57
2018-10-05T11:50:08.357Z,9.27
2018-10-05T11:52:39.880Z,4.90
2018-10-05T11:55:11.313Z,4.17
2018-10-05T11:57:42.882Z,12.37
2018-10-05T12:00:17.347Z,7.93
2018-10-05T12:02:49.200Z,4.90
2018-10-05T12:05:21.263Z,9.77
2018-10-05T12:07:52.636Z,6.33
2018-10-05T12:10:24.336Z,5.47
2018-10-05T12:12:55.939Z,7.47
2018-10-05T12:15:27.510Z,5.60
2018-10-05T12:17:59.300Z,7.73
2018-10-05T12:20:30.587Z,6.40
2018-10-05T12:23:01.812Z,4.37
2018-10-05T12:25:33.180Z,8.93
2018-10-05T12:28:05.085Z,8.40
2018-10-05T12:30:36.913Z,6.77
2018-10-05T12:33:08.530Z,4.87
2018-10-05T12:35:40.331Z,7.40
2018-10-05T12:38:12.099Z,6.37
2018-10-05T12:40:43.397Z,8.90
2018-10-05T12:43:14.691Z,7.43
2018-10-05T12:45:46.054Z,6.30
2018-10-05T12:48:17.570Z,7.73
2018-10-05T12:50:48.739Z,7.97
2018-10-05T12:53:20.240Z,4.93
2018-10-05T12:55:51.638Z,6.03
2018-10-05T12:58:23.056Z,8.63
2018-10-05T13:00:54.406Z,3.27
2018-10-05T13:03:26.226Z,9.37
2018-10-05T13:05:57.737Z,5.23
2018-10-05T13:08:29.438Z,4.63
2018-10-05T13:11:01.215Z,8.50
2018-10-05T13:13:32.459Z,7.67
2018-10-05T13:16:03.858Z,5.10
2018-10-05T13:18:35.573Z,7.77
2018-10-05T13:21:06.777Z,4.70
2018-10-05T13:23:37.939Z,10.07
2018-10-05T13:26:10.307Z,12.67
2018-10-05T13:28:41.762Z,4.03
2018-10-05T13:31:13.133Z,6.00
2018-10-05T13:33:44.622Z,7.67
2018-10-05T13:36:15.915Z,5.80
2018-10-05T13:38:47.423Z,4.57
2018-10-05T13:41:18.932Z,7.17
2018-10-05T13:43:50.263Z,4.87
2018-10-05T13:46:21.736Z,3.57
2018-10-05T13:48:53.226Z,7.37
2018-10-05T13:51:24.915Z,3.23
2018-10-05T13:53:56.523Z,11.77
2018-10-05T13:56:27.892Z,10.00
2018-10-05T13:58:59.338Z,3.17
2018-10-05T14:01:30.832Z,8.53
2018-10-05T14:04:02.192Z,3.90
2018-10-05T14:06:33.637Z,9.33
2018-10-05T14:09:07.275Z,5.10
2018-10-05T14:11:38.851Z,4.93
2018-10-05T14:14:10.241Z,6.63
2018-10-05T14:16:41.506Z,4.67
2018-10-05T14:19:13.052Z,4.97
2018-10-05T14:21:44.419Z,6.90
2018-10-05T14:24:15.672Z,7.67
2018-10-05T14:26:47.144Z,4.63
2018-10-05T14:29:18.799Z,8.80
2018-10-05T14:31:50.102Z,12.60
2018-10-05T14:34:21.168Z,5.57
2018-10-05T14:36:52.198Z,6.13
2018-10-05T14:39:23.800Z,9.10
2018-10-05T14:41:55.743Z,11.00
2018-10-05T14:44:27.138Z,6.13
2018-10-05T14:46:58.508Z,6.83
2018-10-05T14:49:29.950Z,4.60
2018-10-05T14:52:01.755Z,6.37
2018-10-05T14:54:33.384Z,12.13
2018-10-05T14:57:04.720Z,4.23
2018-10-05T14:59:36.181Z,5.87
2018-10-05T15:02:07.655Z,6.97
2018-10-05T15:04:39.513Z,10.30
2018-10-05T15:07:11.507Z,7.90
2018-10-05T15:09:43.156Z,6.90
2018-10-05T15:12:14.725Z,10.17
2018-10-05T15:14:46.200Z,15.60
2018-10-05T15:17:17.787Z,20.67
2018-10-05T15:19:49.139Z,15.77
2018-10-05T15:22:20.531Z,45.23
2018-10-05T15:24:52.141Z,14.30
2018-10-05T15:27:23.601Z,12.40
2018-10-05T15:29:55.034Z,10.60
2018-10-05T15:32:26.505Z,9.40
2018-10-05T15:34:58.311Z,6.40
2018-10-05T15:37:29.845Z,5.67
2018-10-05T15:40:01.228Z,8.13
2018-10-05T15:42:32.672Z,7.50
2018-10-05T15:45:04.236Z,8.63
2018-10-05T15:47:35.575Z,6.20
2018-10-05T15:50:07.165Z,16.00
2018-10-05T15:52:38.690Z,5.90
2018-10-05T15:55:10.188Z,5.83
2018-10-05T15:57:41.575Z,8.33
2018-10-05T16:00:12.793Z,5.13
2018-10-05T16:02:44.305Z,5.20
2018-10-05T16:05:15.779Z,7.33
2018-10-05T16:07:47.111Z,5.10
2018-10-05T16:10:18.597Z,7.07
2018-10-05T16:12:50.038Z,6.93
2018-10-05T16:15:21.457Z,7.37
2018-10-05T16:17:52.784Z,7.03
2018-10-05T16:20:24.261Z,9.97
2018-10-05T16:22:55.500Z,23.97
2018-10-05T16:25:26.844Z,12.13
2018-10-05T16:27:58.293Z,20.03
2018-10-05T16:30:29.876Z,23.37
2018-10-05T16:33:01.148Z,40.80
2018-10-05T16:35:32.754Z,9.80
2018-10-05T16:38:04.323Z,13.03
2018-10-05T16:40:35.739Z,10.13
2018-10-05T16:43:07.603Z,17.67
2018-10-05T16:45:39.088Z,26.70
2018-10-05T16:48:10.629Z,10.60
2018-10-05T16:50:42.201Z,4.60
2018-10-05T16:53:13.709Z,6.93
2018-10-05T16:55:45.259Z,9.40
2018-10-05T16:58:16.708Z,9.50
2018-10-05T17:00:48.436Z,12.23
2018-10-05T17:03:19.923Z,10.53
2018-10-05T17:05:51.226Z,18.30
2018-10-05T17:08:22.904Z,21.50
2018-10-05T17:10:54.602Z,22.23
2018-10-05T17:13:26.136Z,23.17
2018-10-05T17:15:57.897Z,27.70
2018-10-05T17:18:29.338Z,27.90
2018-10-05T17:21:00.859Z,22.80
2018-10-05T17:23:32.481Z,20.17
2018-10-05T17:26:04.100Z,22.63
2018-10-05T17:28:36.095Z,20.87
2018-10-05T17:31:07.818Z,24.30
2018-10-05T17:33:39.263Z,18.60
2018-10-05T17:36:11.144Z,18.20
2018-10-05T17:38:42.508Z,19.03
2018-10-05T17:41:13.963Z,17.90
2018-10-05T17:43:45.345Z,21.60
2018-10-05T17:46:16.677Z,21.00
2018-10-05T17:48:48.157Z,23.57
2018-10-05T17:51:19.700Z,24.87
2018-10-05T17:53:51.194Z,24.17
2018-10-05T17:56:22.537Z,28.93
2018-10-05T17:58:54.249Z,14.83
2018-10-05T18:01:26.019Z,16.50
2018-10-05T18:03:57.451Z,20.73
2018-10-05T18:06:29.371Z,15.17
2018-10-05T18:09:00.747Z,19.77
2018-10-05T18:11:32.282Z,16.73
2018-10-05T18:14:03.690Z,24.07
2018-10-05T18:16:35.068Z,22.33
2018-10-05T18:19:06.490Z,22.33
2018-10-05T18:21:37.993Z,19.57
2018-10-05T18:24:09.535Z,22.57
2018-10-05T18:26:40.856Z,23.87
2018-10-05T18:29:12.111Z,18.57
2018-10-05T18:31:43.616Z,18.73
2018-10-05T18:34:14.988Z,24.27
2018-10-05T18:36:46.675Z,34.17
2018-10-05T18:39:18.009Z,23.90
2018-10-05T18:41:49.702Z,25.20
2018-10-05T18:44:21.486Z,24.70
2018-10-05T18:46:53.332Z,23.33
2018-10-05T18:49:24.957Z,17.37
2018-10-05T18:51:56.368Z,20.73
2018-10-05T18:54:28.921Z,18.97
2018-10-05T18:57:13.127Z,31.50
2018-10-05T18:59:44.617Z,29.63
2018-10-05T19:02:16.788Z,35.20
2018-10-05T19:04:48.945Z,23.90
2018-10-05T19:07:20.377Z,23.57
2018-10-05T19:09:51.823Z,15.83
2018-10-05T19:12:23.300Z,49.70
2018-10-05T19:14:54.528Z,30.20
2018-10-05T19:17:26.056Z,25.30
2018-10-05T19:19:57.412Z,23.50
2018-10-05T19:22:28.885Z,21.27
2018-10-05T19:25:00.095Z,21.93
2018-10-05T19:27:31.493Z,24.83
2018-10-05T19:30:03.152Z,19.17
2018-10-05T19:32:34.730Z,19.33
2018-10-05T19:35:06.363Z,23.30
2018-10-05T19:37:38.048Z,21.90
2018-10-05T19:40:09.409Z,17.43
2018-10-05T19:42:40.996Z,51.13
2018-10-05T19:45:12.562Z,25.17
2018-10-05T19:47:44.174Z,30.63
2018-10-05T19:50:15.834Z,26.67
2018-10-05T19:52:47.715Z,19.03
2018-10-05T19:55:18.959Z,19.00
2018-10-05T19:57:50.696Z,30.27
2018-10-05T20:00:21.849Z,52.07
2018-10-05T20:02:53.064Z,22.57
2018-10-05T20:05:25.099Z,19.23
2018-10-05T20:07:56.506Z,19.77
2018-10-05T20:10:27.684Z,18.67
2018-10-05T20:12:59.076Z,21.03
2018-10-05T20:15:30.705Z,17.20
2018-10-05T20:18:02.214Z,25.20
2018-10-05T20:20:33.347Z,17.37
2018-10-05T20:23:04.716Z,14.30
2018-10-05T20:25:36.268Z,16.47
2018-10-05T20:28:07.820Z,19.50
2018-10-05T20:30:39.357Z,15.00
2018-10-05T20:33:10.521Z,22.30
2018-10-05T20:35:42.113Z,13.13
2018-10-05T20:38:13.531Z,15.13
2018-10-05T20:40:44.932Z,21.20
2018-10-05T20:43:16.305Z,13.57
2018-10-05T20:45:47.476Z,24.10
2018-10-05T20:48:18.900Z,16.50
2018-10-05T20:50:50.595Z,15.93
2018-10-05T20:53:22.023Z,20.63
2018-10-05T20:55:53.359Z,17.10
2018-10-05T20:58:24.688Z,19.17
2018-10-05T21:00:56.136Z,20.50
2018-10-05T21:03:27.554Z,19.63
2018-10-05T21:05:59.176Z,10.60
2018-10-05T21:08:30.418Z,13.07
2018-10-05T21:11:02.496Z,16.20
2018-10-05T21:13:33.994Z,16.23
2018-10-05T21:16:05.066Z,13.23
2018-10-05T21:18:36.394Z,16.63
2018-10-05T21:21:07.849Z,12.33
2018-10-05T21:23:39.303Z,19.37
2018-10-05T21:26:10.668Z,33.37
2018-10-05T21:28:41.913Z,33.70
2018-10-05T21:31:13.446Z,24.20
2018-10-05T21:33:44.733Z,18.00
2018-10-05T21:36:16.292Z,23.00
2018-10-05T21:38:48.000Z,19.90
2018-10-05T21:41:19.268Z,21.50
2018-10-05T21:43:50.559Z,18.70
2018-10-05T21:46:21.993Z,13.37
2018-10-05T21:48:53.447Z,12.47
2018-10-05T21:51:25.226Z,15.80
2018-10-05T21:53:56.392Z,18.93
2018-10-05T21:56:27.950Z,17.30
2018-10-05T21:58:59.654Z,74.00
2018-10-05T22:01:30.851Z,49.40
2018-10-05T22:04:02.003Z,19.57
2018-10-05T22:06:33.289Z,16.97
2018-10-05T22:09:06.414Z,15.47
2018-10-05T22:11:37.876Z,12.87
2018-10-05T22:14:09.339Z,14.53
2018-10-05T22:16:40.693Z,13.60
2018-10-05T22:19:12.023Z,17.47
2018-10-05T22:21:43.786Z,16.60
2018-10-05T22:24:14.976Z,16.17
2018-10-05T22:26:46.551Z,15.50
2018-10-05T22:29:18.950Z,18.90
2018-10-05T22:31:50.480Z,14.40
2018-10-05T22:34:22.960Z,13.07
2018-10-05T22:36:54.153Z,16.67
2018-10-05T22:39:25.485Z,13.77
2018-10-05T22:41:57.366Z,15.77
2018-10-05T22:44:28.795Z,12.87
2018-10-05T22:47:00.003Z,12.70
2018-10-05T22:49:31.328Z,15.93
2018-10-05T22:52:03.040Z,14.27
2018-10-05T22:54:34.512Z,14.43
2018-10-05T22:57:06.091Z,14.70
2018-10-05T22:59:37.679Z,18.30
2018-10-05T23:02:09.032Z,16.73
2018-10-05T23:04:40.139Z,16.10
2018-10-05T23:07:11.724Z,18.33
2018-10-05T23:09:43.280Z,14.33
2018-10-05T23:12:14.455Z,16.70
2018-10-05T23:14:45.762Z,15.30
2018-10-05T23:17:23.730Z,18.03
2018-10-05T23:19:55.114Z,14.70
2018-10-05T23:22:26.611Z,16.93
2018-10-05T23:24:58.364Z,18.57
2018-10-05T23:27:29.849Z,14.90
2018-10-05T23:30:01.117Z,20.67
2018-10-05T23:32:32.451Z,13.07
2018-10-05T23:35:03.684Z,13.37
2018-10-05T23:37:34.963Z,16.27
2018-10-05T23:40:06.048Z,18.37
2018-10-05T23:42:37.759Z,16.83
2018-10-05T23:45:09.052Z,18.93
2018-10-05T23:47:40.224Z,20.93
2018-10-05T23:50:11.519Z,18.77
2018-10-05T23:52:46.277Z,18.67
2018-10-05T23:55:17.700Z,16.70
2018-10-05T23:57:49.478Z,15.33
